Time;durP1;ratioP1;P1;durP2;ratioP2;P2;SDS_P1;SDS_P2;PMS_P1;PMS_P2;Temp;Humidity;BMP_temperature;BMP_pressure;BME280_temperature;BME280_humidity;BME280_pressure;Samples;Min_cycle;Max_cycle;Signal;HPM_P1;HPM_P2
2022/07/20 00:00:37;;;;;;;;;;;19.90;1.00;;;;;;5038244;28;19955;-84
2022/07/20 00:03:04;;;;;;;;;;;19.80;1.00;;;;;;5037519;28;20031;-84
2022/07/20 00:05:29;;;;;;;;;;;19.80;1.00;;;;;;5038888;28;19920;-84
2022/07/20 00:07:55;;;;;;;;;;;19.80;1.00;;;;;;5036648;28;19913;-84
2022/07/20 00:13:05;;;;;;;;;;;19.70;1.00;;;;;;5040676;28;20004;-84
2022/07/20 00:15:30;;;;;;;;;;;19.80;1.00;;;;;;5038696;28;19988;-84
2022/07/20 00:17:56;;;;;;;;;;;19.70;1.00;;;;;;5039432;28;19904;-85
2022/07/20 00:20:21;;;;;;;;;;;19.70;1.00;;;;;;5037495;28;20359;-85
2022/07/20 00:22:47;;;;;;;;;;;19.60;99.90;;;;;;5037752;28;20007;-84
2022/07/20 00:25:12;;;;;;;;;;;19.50;99.90;;;;;;5038523;28;19912;-84
2022/07/20 00:27:38;;;;;;;;;;;19.30;99.90;;;;;;5037362;28;19909;-84
2022/07/20 00:30:04;;;;;;;;;;;19.20;1.00;;;;;;5037189;28;19905;-83
2022/07/20 00:32:29;;;;;;;;;;;19.20;99.90;;;;;;5046345;28;19958;-84
2022/07/20 00:34:55;;;;;;;;;;;19.20;99.90;;;;;;5038089;28;19916;-84
2022/07/20 00:37:21;;;;;;;;;;;19.20;99.90;;;;;;5035861;28;19920;-84
2022/07/20 00:39:48;;;;;;;;;;;19.00;1.00;;;;;;5037863;28;19974;-84
2022/07/20 00:42:13;;;;;;;;;;;19.10;1.00;;;;;;5037146;28;19916;-84
2022/07/20 00:44:39;;;;;;;;;;;19.00;26.20;;;;;;5036834;28;19905;-84
2022/07/20 00:47:04;;;;;;;;;;;18.90;1.00;;;;;;5038691;28;20275;-84
2022/07/20 00:49:29;;;;;;;;;;;18.80;1.00;;;;;;5037069;28;19916;-85
2022/07/20 00:51:55;;;;;;;;;;;18.90;1.00;;;;;;5038039;28;20000;-84
2022/07/20 00:54:20;;;;;;;;;;;18.90;1.00;;;;;;5037639;28;19913;-87
2022/07/20 00:56:46;;;;;;;;;;;18.80;1.00;;;;;;5036740;28;19967;-84
2022/07/20 00:59:11;;;;;;;;;;;18.90;1.00;;;;;;5037628;28;19909;-85
2022/07/20 01:01:37;;;;;;;;;;;18.90;1.00;;;;;;5037627;28;20386;-84
2022/07/20 01:04:03;;;;;;;;;;;18.80;99.90;;;;;;5054251;28;20028;-85
2022/07/20 01:06:29;;;;;;;;;;;18.60;1.00;;;;;;5038423;28;20011;-84
2022/07/20 01:08:55;;;;;;;;;;;18.60;99.90;;;;;;5036962;28;20521;-85
2022/07/20 01:11:20;;;;;;;;;;;18.60;99.90;;;;;;5039111;28;19909;-85
2022/07/20 01:13:46;;;;;;;;;;;18.70;99.90;;;;;;5038072;28;20359;-84
2022/07/20 01:16:11;;;;;;;;;;;18.50;99.90;;;;;;5037706;28;19913;-85
2022/07/20 01:18:37;;;;;;;;;;;18.50;99.90;;;;;;5036894;28;20378;-86
2022/07/20 01:21:06;;;;;;;;;;;18.50;1.00;;;;;;5037359;28;19911;-84
2022/07/20 01:23:32;;;;;;;;;;;18.40;1.00;;;;;;5038979;28;20449;-84
2022/07/20 01:25:58;;;;;;;;;;;18.30;1.00;;;;;;5036694;28;19940;-84
2022/07/20 01:28:23;;;;;;;;;;;18.50;99.90;;;;;;5037316;28;19995;-86
2022/07/20 01:30:49;;;;;;;;;;;18.30;1.00;;;;;;5035393;28;19917;-84
2022/07/20 01:33:15;;;;;;;;;;;18.20;99.90;;;;;;5037358;28;19916;-86
2022/07/20 01:35:40;;;;;;;;;;;18.20;76.20;;;;;;5038005;28;19911;-85
2022/07/20 01:38:06;;;;;;;;;;;18.20;1.00;;;;;;5036561;28;19920;-84
2022/07/20 01:40:31;;;;;;;;;;;18.10;99.90;;;;;;5035190;28;19905;-84
2022/07/20 01:42:57;;;;;;;;;;;18.00;1.00;;;;;;5038379;28;20290;-86
2022/07/20 01:45:22;;;;;;;;;;;17.90;1.00;;;;;;5034698;28;19999;-86
2022/07/20 01:47:48;;;;;;;;;;;18.00;99.90;;;;;;5036979;28;19908;-86
2022/07/20 01:50:13;;;;;;;;;;;18.10;99.90;;;;;;5035676;28;19919;-85
2022/07/20 01:52:39;;;;;;;;;;;18.10;95.60;;;;;;5035079;28;19909;-83
2022/07/20 01:55:05;;;;;;;;;;;18.20;36.40;;;;;;5036186;28;19948;-85
2022/07/20 01:57:30;;;;;;;;;;;18.20;1.00;;;;;;5034969;28;19975;-84
2022/07/20 01:59:56;;;;;;;;;;;18.30;1.00;;;;;;5035074;28;20390;-85
2022/07/20 02:02:21;;;;;;;;;;;18.40;1.00;;;;;;5036330;28;20366;-84
2022/07/20 02:04:47;;;;;;;;;;;18.20;1.00;;;;;;5035968;28;19916;-85
2022/07/20 02:07:12;;;;;;;;;;;18.30;93.60;;;;;;5037199;28;19905;-84
2022/07/20 02:09:38;;;;;;;;;;;18.10;1.00;;;;;;5037249;28;20282;-85
2022/07/20 02:12:03;;;;;;;;;;;18.00;99.90;;;;;;5035667;28;19908;-85
2022/07/20 02:14:29;;;;;;;;;;;17.90;99.90;;;;;;5036087;28;19908;-84
2022/07/20 02:16:55;;;;;;;;;;;17.80;4.60;;;;;;5035347;28;20390;-84
2022/07/20 02:19:20;;;;;;;;;;;17.90;1.00;;;;;;5035546;28;19951;-85
2022/07/20 02:21:46;;;;;;;;;;;17.80;1.00;;;;;;5037650;28;19919;-85
2022/07/20 02:24:11;;;;;;;;;;;17.90;99.90;;;;;;5035708;28;20345;-84
2022/07/20 02:26:36;;;;;;;;;;;18.00;99.90;;;;;;5036366;28;19905;-84
2022/07/20 02:29:02;;;;;;;;;;;18.00;1.00;;;;;;5035835;28;19909;-85
2022/07/20 02:31:27;;;;;;;;;;;18.00;99.90;;;;;;5034613;28;20957;-86
2022/07/20 02:33:53;;;;;;;;;;;18.10;99.90;;;;;;5035670;28;19916;-84
2022/07/20 02:36:18;;;;;;;;;;;17.90;1.00;;;;;;5036316;28;19932;-85
2022/07/20 02:38:44;;;;;;;;;;;18.10;97.70;;;;;;5036290;28;19924;-86
2022/07/20 02:41:10;;;;;;;;;;;18.30;1.00;;;;;;5034673;28;20307;-85
2022/07/20 02:43:36;;;;;;;;;;;18.30;1.00;;;;;;5034863;28;19913;-85
2022/07/20 02:46:02;;;;;;;;;;;18.20;1.00;;;;;;5035317;28;19911;-85
2022/07/20 02:48:27;;;;;;;;;;;18.20;13.60;;;;;;5035298;28;19959;-85
2022/07/20 02:50:53;;;;;;;;;;;18.10;1.00;;;;;;5035596;28;20275;-85
2022/07/20 02:53:18;;;;;;;;;;;17.90;1.00;;;;;;5036298;28;19916;-85
2022/07/20 02:55:44;;;;;;;;;;;18.10;1.00;;;;;;5036013;28;19904;-85
2022/07/20 02:58:10;;;;;;;;;;;18.00;1.00;;;;;;5035242;28;20380;-85
2022/07/20 03:00:35;;;;;;;;;;;18.10;1.00;;;;;;5042721;28;19955;-85
2022/07/20 03:03:01;;;;;;;;;;;17.90;99.90;;;;;;5034890;28;19932;-85
2022/07/20 03:05:26;;;;;;;;;;;17.90;1.00;;;;;;5033388;28;19908;-85
2022/07/20 03:07:52;;;;;;;;;;;17.90;1.00;;;;;;5035627;28;19908;-84
2022/07/20 03:10:17;;;;;;;;;;;17.80;1.00;;;;;;5034590;28;19908;-84
2022/07/20 03:12:43;;;;;;;;;;;17.90;2.30;;;;;;5051025;28;19995;-83
2022/07/20 03:15:09;;;;;;;;;;;18.00;1.00;;;;;;5034038;28;19913;-84
2022/07/20 03:17:48;;;;;;;;;;;17.90;1.00;;;;;;5036920;28;19916;-84
2022/07/20 03:20:17;;;;;;;;;;;17.80;99.90;;;;;;5034568;28;19908;-84
2022/07/20 03:22:43;;;;;;;;;;;17.50;99.90;;;;;;5034143;28;19947;-84
2022/07/20 03:25:08;;;;;;;;;;;17.60;1.00;;;;;;5037096;28;19960;-84
2022/07/20 03:27:34;;;;;;;;;;;17.70;99.90;;;;;;5039856;28;20582;-84
2022/07/20 03:29:59;;;;;;;;;;;17.90;99.90;;;;;;5038076;28;19909;-83
2022/07/20 03:32:25;;;;;;;;;;;17.90;1.00;;;;;;5040220;28;20023;-84
2022/07/20 03:34:50;;;;;;;;;;;18.00;1.00;;;;;;5038337;28;20751;-84
2022/07/20 03:37:16;;;;;;;;;;;17.90;99.90;;;;;;5039237;28;20283;-85
2022/07/20 03:39:41;;;;;;;;;;;17.90;99.90;;;;;;5038344;28;19938;-85
2022/07/20 03:42:06;;;;;;;;;;;17.90;99.90;;;;;;5038316;28;19909;-86
2022/07/20 03:44:32;;;;;;;;;;;17.80;99.90;;;;;;5040556;28;20260;-84
2022/07/20 03:46:57;;;;;;;;;;;17.80;1.00;;;;;;5038908;28;20063;-84
2022/07/20 03:49:23;;;;;;;;;;;17.80;1.00;;;;;;5037631;28;19909;-84
2022/07/20 03:51:48;;;;;;;;;;;17.90;1.00;;;;;;5037625;28;19906;-87
2022/07/20 03:54:14;;;;;;;;;;;17.80;99.90;;;;;;5038411;28;19908;-87
2022/07/20 03:56:40;;;;;;;;;;;18.00;99.90;;;;;;5038096;28;19960;-85
2022/07/20 03:59:09;;;;;;;;;;;18.00;99.90;;;;;;5038447;28;19932;-84
2022/07/20 04:01:34;;;;;;;;;;;17.90;99.90;;;;;;5040046;28;19909;-84
2022/07/20 04:04:00;;;;;;;;;;;17.90;1.00;;;;;;5038364;28;20381;-84
2022/07/20 04:06:25;;;;;;;;;;;17.90;99.90;;;;;;5038451;28;19963;-84
2022/07/20 04:08:51;;;;;;;;;;;18.00;99.90;;;;;;5038087;28;19905;-84
2022/07/20 04:11:16;;;;;;;;;;;18.10;99.90;;;;;;5037297;28;20382;-85
2022/07/20 04:13:42;;;;;;;;;;;18.10;69.50;;;;;;5040035;28;19995;-85
2022/07/20 04:16:07;;;;;;;;;;;18.10;1.00;;;;;;5039329;28;20337;-84
2022/07/20 04:18:33;;;;;;;;;;;18.00;99.90;;;;;;5039402;28;19912;-85
2022/07/20 04:20:58;;;;;;;;;;;18.20;99.90;;;;;;5038218;28;19919;-84
2022/07/20 04:23:24;;;;;;;;;;;18.10;99.90;;;;;;5038370;28;19913;-86
2022/07/20 04:25:49;;;;;;;;;;;18.10;99.90;;;;;;5037752;28;19909;-84
2022/07/20 04:28:15;;;;;;;;;;;18.30;99.90;;;;;;5038424;28;20389;-85
2022/07/20 04:30:41;;;;;;;;;;;18.30;1.00;;;;;;5039190;28;19998;-84
2022/07/20 04:33:07;;;;;;;;;;;18.50;99.90;;;;;;5037334;28;20038;-84
2022/07/20 04:35:32;;;;;;;;;;;18.50;1.00;;;;;;5037911;28;19999;-85
2022/07/20 04:37:58;;;;;;;;;;;18.60;1.00;;;;;;5037095;28;20602;-84
2022/07/20 04:40:23;;;;;;;;;;;18.60;1.00;;;;;;5038951;28;19952;-84
2022/07/20 04:42:49;;;;;;;;;;;18.70;99.90;;;;;;5038607;28;19909;-85
2022/07/20 04:45:14;;;;;;;;;;;18.80;99.90;;;;;;5037684;28;19909;-86
2022/07/20 04:47:39;;;;;;;;;;;18.90;99.90;;;;;;5037642;28;19916;-84
2022/07/20 04:50:05;;;;;;;;;;;18.90;1.00;;;;;;5054269;28;20419;-85
2022/07/20 04:52:31;;;;;;;;;;;19.00;1.00;;;;;;5037023;28;19917;-84
2022/07/20 04:54:56;;;;;;;;;;;19.30;1.00;;;;;;5037866;28;19916;-85
2022/07/20 04:57:22;;;;;;;;;;;19.70;99.90;;;;;;5045596;28;19956;-85
2022/07/20 04:59:47;;;;;;;;;;;20.50;99.90;;;;;;5037084;28;19947;-85
2022/07/20 05:02:13;;;;;;;;;;;21.20;1.00;;;;;;5037091;28;19935;-85
2022/07/20 05:04:38;;;;;;;;;;;21.70;99.90;;;;;;5038977;28;19908;-85
2022/07/20 05:07:04;;;;;;;;;;;22.10;13.10;;;;;;5039178;28;19966;-85
2022/07/20 05:09:29;;;;;;;;;;;22.30;1.00;;;;;;5045107;28;19909;-85
2022/07/20 05:11:55;;;;;;;;;;;22.90;1.00;;;;;;5037359;28;19911;-83
2022/07/20 05:14:20;;;;;;;;;;;24.00;1.00;;;;;;5037151;28;19917;-85
2022/07/20 05:16:46;;;;;;;;;;;24.70;1.00;;;;;;5038831;28;19959;-85
2022/07/20 05:19:12;;;;;;;;;;;25.40;99.90;;;;;;5036090;28;19909;-84
2022/07/20 05:21:37;;;;;;;;;;;26.00;99.90;;;;;;5037053;28;19963;-85
2022/07/20 05:24:03;;;;;;;;;;;26.30;99.90;;;;;;5037355;28;19909;-84
2022/07/20 05:26:28;;;;;;;;;;;26.60;99.90;;;;;;5035982;28;19992;-86
2022/07/20 05:28:54;;;;;;;;;;;27.20;99.90;;;;;;5036431;28;19913;-86
2022/07/20 05:31:19;;;;;;;;;;;27.70;99.90;;;;;;5035881;28;20346;-85
2022/07/20 05:33:45;;;;;;;;;;;28.20;99.90;;;;;;5037095;28;20398;-85
2022/07/20 05:36:11;;;;;;;;;;;28.40;99.90;;;;;;5036510;28;19936;-85
2022/07/20 05:38:36;;;;;;;;;;;28.40;99.90;;;;;;5037147;28;19912;-85
2022/07/20 05:41:02;;;;;;;;;;;28.40;99.90;;;;;;5035923;28;19905;-85
2022/07/20 05:43:28;;;;;;;;;;;28.80;99.90;;;;;;5053136;28;20278;-86
2022/07/20 05:45:53;;;;;;;;;;;29.30;97.50;;;;;;5036487;28;19932;-86
2022/07/20 05:48:19;;;;;;;;;;;29.70;92.10;;;;;;5036160;28;19912;-86
2022/07/20 05:50:44;;;;;;;;;;;30.00;75.80;;;;;;5035831;28;19983;-86
2022/07/20 05:53:10;;;;;;;;;;;30.20;58.30;;;;;;5044582;28;19943;-86
2022/07/20 05:55:37;;;;;;;;;;;30.50;56.40;;;;;;5044949;28;19967;-84
2022/07/20 05:58:03;;;;;;;;;;;31.10;44.30;;;;;;5036058;28;19999;-84
2022/07/20 06:00:31;;;;;;;;;;;31.20;33.20;;;;;;5034562;28;19920;-84
2022/07/20 06:02:56;;;;;;;;;;;31.70;29.00;;;;;;5035762;28;19920;-84
2022/07/20 06:05:22;;;;;;;;;;;32.10;23.70;;;;;;5037140;28;19909;-85
2022/07/20 06:07:47;;;;;;;;;;;32.50;16.70;;;;;;5037335;28;19909;-86
2022/07/20 06:10:13;;;;;;;;;;;33.10;6.00;;;;;;5035509;28;19913;-86
2022/07/20 06:12:39;;;;;;;;;;;33.00;1.00;;;;;;5035610;28;19958;-86
2022/07/20 06:15:04;;;;;;;;;;;32.50;1.00;;;;;;5053075;28;19967;-87
2022/07/20 06:17:37;;;;;;;;;;;32.80;1.00;;;;;;5035501;28;19909;-87
2022/07/20 06:20:05;;;;;;;;;;;33.30;1.00;;;;;;5035512;28;19916;-88
2022/07/20 06:22:30;;;;;;;;;;;33.50;1.00;;;;;;5035814;28;20798;-87
2022/07/20 06:24:56;;;;;;;;;;;33.90;1.00;;;;;;5034572;28;20027;-85
2022/07/20 06:27:21;;;;;;;;;;;34.30;1.00;;;;;;5033802;28;20480;-87
2022/07/20 06:29:47;;;;;;;;;;;34.20;1.00;;;;;;5032194;28;19905;-90
2022/07/20 06:32:12;;;;;;;;;;;34.10;1.00;;;;;;5036513;28;19935;-86
2022/07/20 06:34:38;;;;;;;;;;;34.30;1.00;;;;;;5035062;28;20007;-86
2022/07/20 06:37:03;;;;;;;;;;;34.50;1.00;;;;;;5035150;28;20363;-86
2022/07/20 06:39:29;;;;;;;;;;;34.60;1.00;;;;;;5037319;28;19909;-86
2022/07/20 06:41:54;;;;;;;;;;;34.90;1.00;;;;;;5035897;28;19908;-86
2022/07/20 06:44:20;;;;;;;;;;;34.70;1.00;;;;;;5036074;28;19909;-85
2022/07/20 06:46:45;;;;;;;;;;;34.90;1.00;;;;;;5035693;28;19913;-87
2022/07/20 06:49:11;;;;;;;;;;;35.20;1.00;;;;;;5035806;28;19969;-87
2022/07/20 06:51:36;;;;;;;;;;;35.10;1.00;;;;;;5034890;28;20274;-87
2022/07/20 06:54:02;;;;;;;;;;;35.80;1.00;;;;;;5036287;28;19913;-89
2022/07/20 06:56:27;;;;;;;;;;;35.50;1.00;;;;;;5036639;28;19912;-88
2022/07/20 06:58:53;;;;;;;;;;;35.40;1.00;;;;;;5032312;28;19909;-86
2022/07/20 07:01:19;;;;;;;;;;;35.10;1.00;;;;;;5036348;28;20388;-84
2022/07/20 07:03:44;;;;;;;;;;;36.00;1.00;;;;;;5037745;28;19913;-86
2022/07/20 07:06:09;;;;;;;;;;;36.30;1.00;;;;;;5036644;28;20345;-87
2022/07/20 07:08:35;;;;;;;;;;;36.40;1.00;;;;;;5037101;28;19916;-86
2022/07/20 07:11:00;;;;;;;;;;;37.10;1.00;;;;;;5034653;28;19905;-86
2022/07/20 07:13:26;;;;;;;;;;;36.90;1.00;;;;;;5034000;28;19913;-87
2022/07/20 07:15:51;;;;;;;;;;;36.60;1.00;;;;;;5035157;28;19929;-87
2022/07/20 07:18:17;;;;;;;;;;;37.20;1.00;;;;;;5034901;28;19904;-87
2022/07/20 07:20:42;;;;;;;;;;;37.60;1.00;;;;;;5036278;28;20293;-87
2022/07/20 07:23:09;;;;;;;;;;;37.70;1.00;;;;;;5033945;28;19913;-86
2022/07/20 07:25:36;;;;;;;;;;;37.40;1.00;;;;;;5032953;28;19908;-86
2022/07/20 07:28:02;;;;;;;;;;;37.10;1.00;;;;;;5032669;28;19905;-87
2022/07/20 07:30:27;;;;;;;;;;;37.00;1.00;;;;;;5036126;28;19916;-86
2022/07/20 07:32:52;;;;;;;;;;;36.40;1.00;;;;;;5035170;28;19909;-86
2022/07/20 07:35:18;;;;;;;;;;;35.70;1.00;;;;;;5034751;28;19908;-85
2022/07/20 07:37:43;;;;;;;;;;;35.00;1.00;;;;;;5026021;28;19909;-85
2022/07/20 07:40:09;;;;;;;;;;;34.60;1.00;;;;;;5027669;28;19924;-85
2022/07/20 07:42:35;;;;;;;;;;;34.00;1.00;;;;;;5026363;28;19991;-85
2022/07/20 07:45:04;;;;;;;;;;;33.80;1.00;;;;;;5026560;28;19912;-84
2022/07/20 07:47:30;;;;;;;;;;;33.60;1.00;;;;;;5033377;28;19912;-85
2022/07/20 07:49:56;;;;;;;;;;;33.30;1.00;;;;;;5029418;28;19916;-85
2022/07/20 07:52:21;;;;;;;;;;;33.20;1.00;;;;;;5033026;28;19916;-88
2022/07/20 07:54:47;;;;;;;;;;;33.00;1.00;;;;;;5034226;28;20374;-85
2022/07/20 07:57:12;;;;;;;;;;;33.00;1.00;;;;;;5035366;28;19913;-84
2022/07/20 07:59:38;;;;;;;;;;;33.00;1.00;;;;;;5035207;28;19909;-86
2022/07/20 08:02:03;;;;;;;;;;;33.00;1.00;;;;;;5035127;28;19959;-85
2022/07/20 08:04:29;;;;;;;;;;;33.00;1.00;;;;;;5035137;28;20062;-86
2022/07/20 08:06:55;;;;;;;;;;;33.00;1.00;;;;;;5033754;28;19919;-86
2022/07/20 08:09:20;;;;;;;;;;;33.00;1.00;;;;;;5032743;28;19909;-85
2022/07/20 08:11:46;;;;;;;;;;;32.90;1.00;;;;;;5034792;28;20374;-85
2022/07/20 08:14:12;;;;;;;;;;;33.00;1.00;;;;;;5038283;28;19967;-85
2022/07/20 08:16:37;;;;;;;;;;;33.00;1.00;;;;;;5040540;28;20283;-86
2022/07/20 08:19:02;;;;;;;;;;;32.80;1.00;;;;;;5039155;28;20019;-85
2022/07/20 08:21:28;;;;;;;;;;;32.70;1.00;;;;;;5039554;28;20375;-85
2022/07/20 08:23:54;;;;;;;;;;;32.90;1.00;;;;;;5039639;28;19956;-85
2022/07/20 08:26:19;;;;;;;;;;;32.90;1.00;;;;;;5040494;28;20394;-85
2022/07/20 08:28:45;;;;;;;;;;;33.20;1.00;;;;;;5038786;28;19931;-85
2022/07/20 08:31:10;;;;;;;;;;;33.30;1.00;;;;;;5040048;28;20277;-85
2022/07/20 08:33:36;;;;;;;;;;;33.40;1.00;;;;;;5041521;28;19909;-85
2022/07/20 08:36:01;;;;;;;;;;;33.40;1.00;;;;;;5038603;28;19913;-85
2022/07/20 08:38:27;;;;;;;;;;;33.60;1.00;;;;;;5039505;28;19979;-85
2022/07/20 08:40:52;;;;;;;;;;;33.60;1.00;;;;;;5039787;28;19909;-85
2022/07/20 08:43:18;;;;;;;;;;;33.70;1.00;;;;;;5055568;28;20382;-85
2022/07/20 08:45:44;;;;;;;;;;;33.80;1.00;;;;;;5036866;28;19908;-85
2022/07/20 08:48:11;;;;;;;;;;;33.90;1.00;;;;;;5036898;28;19912;-86
2022/07/20 08:50:37;;;;;;;;;;;34.00;1.00;;;;;;5037096;28;19913;-84
2022/07/20 08:53:03;;;;;;;;;;;33.90;1.00;;;;;;5037525;28;19990;-84
2022/07/20 08:55:29;;;;;;;;;;;33.80;1.00;;;;;;5053870;28;20359;-84
2022/07/20 08:57:54;;;;;;;;;;;33.70;1.00;;;;;;5040117;28;20452;-84
2022/07/20 09:00:20;;;;;;;;;;;34.00;1.00;;;;;;5036995;28;20490;-84
2022/07/20 09:02:56;;;;;;;;;;;34.20;1.00;;;;;;5036068;28;19909;-83
2022/07/20 09:05:23;;;;;;;;;;;34.30;1.00;;;;;;5039509;28;19908;-84
2022/07/20 09:07:50;;;;;;;;;;;34.50;1.00;;;;;;5054147;28;19909;-84
2022/07/20 09:10:17;;;;;;;;;;;34.70;1.00;;;;;;5037878;28;20522;-84
2022/07/20 09:12:59;;;;;;;;;;;34.70;1.00;;;;;;5036068;28;19912;-84
2022/07/20 09:15:45;;;;;;;;;;;34.50;1.00;;;;;;5053712;28;20927;-84
2022/07/20 09:18:14;;;;;;;;;;;34.40;1.00;;;;;;5038730;28;19912;-84
2022/07/20 09:20:44;;;;;;;;;;;34.30;1.00;;;;;;5039042;28;19912;-84
2022/07/20 09:23:11;;;;;;;;;;;34.40;1.00;;;;;;5045252;28;19956;-85
2022/07/20 09:25:36;;;;;;;;;;;34.60;1.00;;;;;;5036734;28;19913;-85
2022/07/20 09:28:02;;;;;;;;;;;34.70;1.00;;;;;;5040506;28;20311;-84
2022/07/20 09:30:28;;;;;;;;;;;34.50;1.00;;;;;;5038649;28;20371;-85
2022/07/20 09:32:59;;;;;;;;;;;34.40;1.00;;;;;;5038180;28;19908;-84
2022/07/20 09:35:27;;;;;;;;;;;34.50;1.00;;;;;;5037895;28;20474;-86
2022/07/20 09:37:54;;;;;;;;;;;34.80;1.00;;;;;;5045722;28;20292;-87
2022/07/20 09:40:20;;;;;;;;;;;35.00;1.00;;;;;;5038837;28;20000;-86
2022/07/20 09:42:46;;;;;;;;;;;35.30;1.00;;;;;;5039078;28;20003;-86
2022/07/20 09:45:23;;;;;;;;;;;35.60;1.00;;;;;;5037669;28;19913;-85
2022/07/20 09:48:04;;;;;;;;;;;35.80;1.00;;;;;;5034207;28;19912;-86
2022/07/20 09:50:37;;;;;;;;;;;35.90;1.00;;;;;;5046245;28;20051;-86
2022/07/20 09:53:03;;;;;;;;;;;36.00;1.00;;;;;;5036220;28;19909;-85
2022/07/20 09:55:30;;;;;;;;;;;35.90;1.00;;;;;;5036238;28;19904;-86
2022/07/20 09:57:56;;;;;;;;;;;35.90;1.00;;;;;;5039436;28;19905;-86
2022/07/20 10:00:22;;;;;;;;;;;35.70;1.00;;;;;;5036598;28;19959;-85
2022/07/20 10:02:48;;;;;;;;;;;35.80;1.00;;;;;;5040339;28;19909;-86
2022/07/20 10:05:16;;;;;;;;;;;35.80;1.00;;;;;;5040792;28;19908;-86
2022/07/20 10:07:43;;;;;;;;;;;36.00;1.00;;;;;;5040722;28;20427;-85
2022/07/20 10:10:09;;;;;;;;;;;36.10;1.00;;;;;;5037054;28;19946;-85
2022/07/20 10:12:34;;;;;;;;;;;36.00;1.00;;;;;;5039256;28;19947;-86
2022/07/20 10:15:00;;;;;;;;;;;36.00;1.00;;;;;;5040207;28;20401;-86
2022/07/20 10:17:29;;;;;;;;;;;36.10;1.00;;;;;;5038385;28;19959;-86
2022/07/20 10:19:54;;;;;;;;;;;36.10;1.00;;;;;;5053276;28;19904;-86
2022/07/20 10:22:20;;;;;;;;;;;36.10;1.00;;;;;;5042563;28;19916;-85
2022/07/20 10:24:47;;;;;;;;;;;36.10;1.00;;;;;;5038741;28;19909;-87
2022/07/20 10:27:13;;;;;;;;;;;36.20;1.00;;;;;;5042382;28;19912;-86
2022/07/20 10:29:40;;;;;;;;;;;36.40;1.00;;;;;;5041298;28;19912;-87
2022/07/20 10:32:09;;;;;;;;;;;36.50;1.00;;;;;;5041409;28;20004;-85
2022/07/20 10:34:36;;;;;;;;;;;36.40;1.00;;;;;;5034902;28;19909;-85
2022/07/20 10:37:23;;;;;;;;;;;36.50;1.00;;;;;;5048859;28;19919;-85
2022/07/20 10:39:50;;;;;;;;;;;36.70;1.00;;;;;;5043911;28;19974;-84
2022/07/20 10:42:22;;;;;;;;;;;36.70;1.00;;;;;;5037380;28;19928;-85
2022/07/20 10:44:49;;;;;;;;;;;36.80;1.00;;;;;;5035279;28;19951;-85
2022/07/20 10:47:50;;;;;;;;;;;36.70;1.00;;;;;;5039322;28;19940;-85
2022/07/20 10:50:19;;;;;;;;;;;36.70;1.00;;;;;;5015256;28;19941;-85
2022/07/20 10:52:46;;;;;;;;;;;36.70;1.00;;;;;;5037094;28;20317;-85
2022/07/20 10:55:31;;;;;;;;;;;36.90;1.00;;;;;;5045339;28;20007;-85
2022/07/20 10:57:57;;;;;;;;;;;37.00;1.00;;;;;;5036063;28;19916;-83
2022/07/20 11:00:28;;;;;;;;;;;36.90;1.00;;;;;;5034957;28;19909;-85
2022/07/20 11:02:53;;;;;;;;;;;36.70;1.00;;;;;;5045502;28;19904;-84
2022/07/20 11:05:20;;;;;;;;;;;36.70;1.00;;;;;;5039303;28;20370;-85
2022/07/20 11:07:46;;;;;;;;;;;36.60;1.00;;;;;;5037602;28;19915;-85
2022/07/20 11:10:20;;;;;;;;;;;36.30;1.00;;;;;;5036903;28;19909;-84
2022/07/20 11:12:55;;;;;;;;;;;36.20;1.00;;;;;;5037656;28;19935;-84
2022/07/20 11:15:20;;;;;;;;;;;36.30;1.00;;;;;;5037156;28;19909;-84
2022/07/20 11:17:46;;;;;;;;;;;36.70;1.00;;;;;;5035371;28;19951;-85
2022/07/20 11:20:15;;;;;;;;;;;36.80;1.00;;;;;;5035374;28;19913;-85
2022/07/20 11:22:40;;;;;;;;;;;36.90;1.00;;;;;;5050437;28;19991;-85
2022/07/20 11:25:06;;;;;;;;;;;36.60;1.00;;;;;;5036740;28;20007;-86
2022/07/20 11:27:32;;;;;;;;;;;36.70;1.00;;;;;;5037120;28;20302;-86
2022/07/20 11:29:57;;;;;;;;;;;36.80;1.00;;;;;;5039483;28;20336;-85
2022/07/20 11:32:27;;;;;;;;;;;36.50;1.00;;;;;;5037815;28;19913;-86
2022/07/20 11:34:53;;;;;;;;;;;36.50;1.00;;;;;;5037896;28;19999;-86
2022/07/20 11:37:20;;;;;;;;;;;36.60;1.00;;;;;;5037843;28;19908;-86
2022/07/20 11:39:46;;;;;;;;;;;36.70;1.00;;;;;;5040908;28;20129;-86
2022/07/20 11:42:14;;;;;;;;;;;36.60;1.00;;;;;;5039475;28;20554;-86
2022/07/20 11:44:39;;;;;;;;;;;36.70;1.00;;;;;;5039059;28;19913;-86
2022/07/20 11:47:05;;;;;;;;;;;36.90;1.00;;;;;;5039690;28;19905;-86
2022/07/20 11:49:30;;;;;;;;;;;36.80;1.00;;;;;;5044997;28;19912;-86
2022/07/20 11:51:58;;;;;;;;;;;36.90;1.00;;;;;;5041883;28;19912;-87
2022/07/20 11:54:25;;;;;;;;;;;37.10;1.00;;;;;;5047096;28;19988;-86
2022/07/20 11:56:51;;;;;;;;;;;37.10;96.70;;;;;;5039484;28;19912;-85
2022/07/20 11:59:17;;;;;;;;;;;37.10;1.00;;;;;;5055536;28;19909;-85
2022/07/20 12:01:43;;;;;;;;;;;36.90;1.00;;;;;;5039618;28;19908;-85
2022/07/20 12:04:10;;;;;;;;;;;36.70;1.00;;;;;;5037102;28;19924;-85
2022/07/20 12:06:36;;;;;;;;;;;36.90;1.00;;;;;;5044907;28;19951;-85
2022/07/20 12:09:10;;;;;;;;;;;37.10;1.00;;;;;;5038069;28;19905;-85
2022/07/20 12:11:36;;;;;;;;;;;37.10;1.00;;;;;;5040175;28;19913;-85
2022/07/20 12:14:02;;;;;;;;;;;37.10;1.00;;;;;;5039504;28;20390;-85
2022/07/20 12:16:38;;;;;;;;;;;37.00;1.00;;;;;;5039572;28;19912;-85
2022/07/20 12:19:04;;;;;;;;;;;37.20;1.00;;;;;;5036817;28;20290;-85
2022/07/20 12:21:38;;;;;;;;;;;37.30;1.00;;;;;;5040737;28;19909;-85
2022/07/20 12:24:04;;;;;;;;;;;37.30;1.00;;;;;;5038598;28;20162;-84
2022/07/20 12:26:35;;;;;;;;;;;37.40;1.00;;;;;;5039501;28;19912;-83
2022/07/20 12:29:20;;;;;;;;;;;37.50;1.00;;;;;;5042317;28;19908;-87
2022/07/20 12:31:59;;;;;;;;;;;37.50;1.00;;;;;;5041988;28;19913;-87
2022/07/20 12:34:24;;;;;;;;;;;37.40;1.00;;;;;;5040799;28;19920;-85
2022/07/20 12:36:50;;;;;;;;;;;37.40;1.00;;;;;;5040623;28;20363;-86
2022/07/20 12:39:36;;;;;;;;;;;37.30;1.00;;;;;;5037314;28;19905;-85
2022/07/20 12:42:09;;;;;;;;;;;37.30;1.00;;;;;;5038228;28;20556;-86
2022/07/20 12:44:35;;;;;;;;;;;37.50;1.00;;;;;;5039131;28;20374;-85
2022/07/20 12:47:01;;;;;;;;;;;37.70;1.00;;;;;;5038413;28;20038;-85
2022/07/20 12:49:27;;;;;;;;;;;37.90;1.00;;;;;;5039168;28;19950;-85
2022/07/20 12:51:53;;;;;;;;;;;37.90;1.00;;;;;;5039297;28;19927;-85
2022/07/20 12:54:18;;;;;;;;;;;37.70;1.00;;;;;;5038604;28;19908;-86
2022/07/20 12:56:45;;;;;;;;;;;37.70;1.00;;;;;;5041925;28;19915;-86
2022/07/20 12:59:11;;;;;;;;;;;37.70;1.00;;;;;;5037265;28;19916;-85
2022/07/20 13:01:36;;;;;;;;;;;37.50;1.00;;;;;;5040305;28;19936;-86
2022/07/20 13:04:02;;;;;;;;;;;37.70;1.00;;;;;;5045334;28;20003;-86
2022/07/20 13:06:27;;;;;;;;;;;37.90;1.00;;;;;;5040170;28;19913;-86
2022/07/20 13:08:53;;;;;;;;;;;38.00;1.00;;;;;;5041300;28;19909;-85
2022/07/20 13:11:19;;;;;;;;;;;38.10;1.00;;;;;;5040699;28;20351;-86
2022/07/20 13:13:44;;;;;;;;;;;38.10;1.00;;;;;;5037097;28;19905;-85
2022/07/20 13:16:10;;;;;;;;;;;38.20;1.00;;;;;;5035196;28;19912;-85
2022/07/20 13:18:35;;;;;;;;;;;38.20;1.00;;;;;;5036488;28;19911;-85
2022/07/20 13:21:01;;;;;;;;;;;37.90;1.00;;;;;;5053104;28;19927;-85
2022/07/20 13:23:26;;;;;;;;;;;37.60;1.00;;;;;;5037455;28;19923;-86
2022/07/20 13:25:52;;;;;;;;;;;37.70;1.00;;;;;;5045945;28;19909;-85
2022/07/20 13:28:17;;;;;;;;;;;37.80;1.00;;;;;;5036606;28;19916;-87
2022/07/20 13:30:43;;;;;;;;;;;37.90;1.00;;;;;;5039034;28;20371;-82
2022/07/20 13:33:09;;;;;;;;;;;37.80;1.00;;;;;;5035569;28;19909;-86
2022/07/20 13:35:36;;;;;;;;;;;38.00;1.00;;;;;;5039598;28;19909;-86
2022/07/20 13:38:02;;;;;;;;;;;38.00;1.00;;;;;;5038830;28;19905;-86
2022/07/20 13:40:27;;;;;;;;;;;38.10;1.00;;;;;;5037618;28;20256;-85
2022/07/20 13:42:53;;;;;;;;;;;38.00;1.00;;;;;;5036728;28;19973;-86
2022/07/20 13:45:18;;;;;;;;;;;38.10;1.00;;;;;;5036167;28;19924;-84
2022/07/20 13:47:44;;;;;;;;;;;38.20;1.00;;;;;;5039400;28;19979;-86
2022/07/20 13:50:10;;;;;;;;;;;38.20;1.00;;;;;;5037768;28;19920;-87
2022/07/20 13:52:36;;;;;;;;;;;38.30;1.00;;;;;;5037187;28;19962;-86
2022/07/20 13:55:02;;;;;;;;;;;38.20;1.00;;;;;;5037171;28;19935;-87
2022/07/20 13:57:28;;;;;;;;;;;38.20;1.00;;;;;;5037607;28;19936;-87
2022/07/20 13:59:53;;;;;;;;;;;38.20;1.00;;;;;;5036299;28;19955;-87
2022/07/20 14:02:19;;;;;;;;;;;38.00;1.00;;;;;;5032192;28;19909;-87
2022/07/20 14:04:44;;;;;;;;;;;38.10;1.00;;;;;;5035004;28;19909;-86
2022/07/20 14:07:10;;;;;;;;;;;37.90;1.00;;;;;;5036625;28;19940;-86
2022/07/20 14:09:35;;;;;;;;;;;37.90;1.00;;;;;;5035669;28;20405;-86
2022/07/20 14:12:01;;;;;;;;;;;37.80;1.00;;;;;;5048603;28;19909;-87
2022/07/20 14:14:27;;;;;;;;;;;38.00;1.00;;;;;;5034336;28;20009;-88
2022/07/20 14:16:52;;;;;;;;;;;38.00;1.00;;;;;;5043272;28;19905;-88
2022/07/20 14:19:18;;;;;;;;;;;38.10;1.00;;;;;;5038636;28;19917;-87
2022/07/20 14:21:44;;;;;;;;;;;38.20;1.00;;;;;;5043965;28;19909;-89
2022/07/20 14:24:09;;;;;;;;;;;38.10;1.00;;;;;;5036715;28;20509;-89